Sand Springs, MT

11:48 PM MDT on July 25, 2016 (GMT -0600)
Union Creek, Montana | | Change Station

Elev 2910 ft 47.26 °N, 107.56 °W | Updated 8 minutes ago

Clear
Clear
71.8 °F
Feels Like 77 °F
N
4.0
Wind Variable Wind from ESE
Gusts 8.0 mph

Today
High -- | Low -- °F
--% Chance of Precip.
Yesterday
High -- | Low -- °F
Precip. -- in
Pressure 29.89 in
Visibility 10.0 miles
Clouds Clear
Heat Index 77 °F
Dew Point 50 °F
Humidity 46%
Rainfall 0.00 in
Snow Depth Not available.
5:40 AM 8:49 PM
Waning Gibbous, 58% visible
METAR KMLS 260453Z AUTO 04010KT 10SM CLR 27/08 A2997 RMK AO2 SLP121 T02720083
Pressure 29.89 in
Visibility 10.0 miles
Clouds Clear
Heat Index 77 °F
Dew Point 50 °F
Humidity 46%
Rainfall 0.00 in
Snow Depth Not available.
5:40 AM 8:49 PM
Waning Gibbous, 58% visible
METAR KMLS 260453Z AUTO 04010KT 10SM CLR 27/08 A2997 RMK AO2 SLP121 T02720083

10-Day Weather Forecast

Almanac

Astronomy

Jul. 25, 2016 Rise Set
Actual Time
Civil Twilight
Nautical Twilight
Astronomical Twilight
Moon
Length of Visible Light
Length of Day
Tomorrow will be .
, % of the Moon is Illuminated

Today's Extremes

State Highs State Lows

Community

WunderPhotos

Upload Photos

1,927,547 photos uploaded!

WunderBlog® & News

Nearby

Air Quality

  Air Quality AQ Index Pollutant
Not available.

Snow Depth

Station Depth Elevation

Earthquake Activity

City Distance Mag. Time & Date
Minimum magnitude displayed is 2.5.

Coastal Water Temperatures

Place Temperature

Stations

Nearby Weather Stations

Station Location Temp. Windchill Dew Point Humidity Wind Precip. Elev Updated Type
                   

Watches & Warnings

There are currently no watches in effect.